sensor_id;sensor_type;location;lat;lon;timestamp;pressure;altitude;pressure_sealevel;temperature;humidity
45523;BME280;31254;51.680;5.394;2024-03-02T00:00:56;99644.09;;;8.61;82.09
45523;BME280;31254;51.680;5.394;2024-03-02T00:03:23;99856.19;;;9.79;81.88
45523;BME280;31254;51.680;5.394;2024-03-02T00:05:50;99565.75;;;7.89;82.39
45523;BME280;31254;51.680;5.394;2024-03-02T00:08:23;99869.31;;;9.76;83.79
45523;BME280;31254;51.680;5.394;2024-03-02T00:10:50;99846.09;;;9.47;83.68
45523;BME280;31254;51.680;5.394;2024-03-02T00:13:20;99938.75;;;9.80;83.88
45523;BME280;31254;51.680;5.394;2024-03-02T00:15:52;99792.19;;;8.83;84.56
45523;BME280;31254;51.680;5.394;2024-03-02T00:18:24;99945.75;;;9.82;84.66
45523;BME280;31254;51.680;5.394;2024-03-02T00:20:55;99970.94;;;9.84;85.42
45523;BME280;31254;51.680;5.394;2024-03-02T00:23:24;99807.00;;;8.97;85.24
45523;BME280;31254;51.680;5.394;2024-03-02T00:25:53;99941.63;;;9.70;85.90
45523;BME280;31254;51.680;5.394;2024-03-02T00:30:57;99900.22;;;9.50;86.68
45523;BME280;31254;51.680;5.394;2024-03-02T00:33:31;99906.16;;;9.45;87.39
45523;BME280;31254;51.680;5.394;2024-03-02T00:35:59;99848.94;;;9.29;86.89
45523;BME280;31254;51.680;5.394;2024-03-02T00:38:27;99800.72;;;8.96;87.28
45523;BME280;31254;51.680;5.394;2024-03-02T00:40:54;99950.69;;;9.87;87.38
45523;BME280;31254;51.680;5.394;2024-03-02T00:45:50;99928.00;;;9.70;88.00
45523;BME280;31254;51.680;5.394;2024-03-02T00:48:16;99959.38;;;9.91;88.03
45523;BME280;31254;51.680;5.394;2024-03-02T00:50:43;99970.25;;;9.82;88.85
45523;BME280;31254;51.680;5.394;2024-03-02T00:53:11;99983.06;;;9.90;88.69
45523;BME280;31254;51.680;5.394;2024-03-02T00:55:39;99846.69;;;9.16;88.17
45523;BME280;31254;51.680;5.394;2024-03-02T00:58:10;99860.53;;;9.31;88.77
45523;BME280;31254;51.680;5.394;2024-03-02T01:00:37;99920.53;;;9.64;88.66
45523;BME280;31254;51.680;5.394;2024-03-02T01:03:04;99833.25;;;9.06;89.01
45523;BME280;31254;51.680;5.394;2024-03-02T01:05:45;99939.38;;;9.57;89.65
45523;BME280;31254;51.680;5.394;2024-03-02T01:08:11;99758.38;;;8.43;90.07
45523;BME280;31254;51.680;5.394;2024-03-02T01:10:38;99863.00;;;9.08;90.70
45523;BME280;31254;51.680;5.394;2024-03-02T01:13:05;99865.03;;;9.06;90.82
45523;BME280;31254;51.680;5.394;2024-03-02T01:15:31;99850.38;;;8.99;90.70
45523;BME280;31254;51.680;5.394;2024-03-02T01:17:59;99710.47;;;8.16;90.92
45523;BME280;31254;51.680;5.394;2024-03-02T01:20:25;99883.63;;;9.19;90.93
45523;BME280;31254;51.680;5.394;2024-03-02T01:22:52;99795.41;;;8.78;90.65
45523;BME280;31254;51.680;5.394;2024-03-02T01:25:18;99985.94;;;9.80;90.61
45523;BME280;31254;51.680;5.394;2024-03-02T01:27:45;99985.28;;;9.86;90.34
45523;BME280;31254;51.680;5.394;2024-03-02T01:30:16;99884.66;;;9.26;90.59
45523;BME280;31254;51.680;5.394;2024-03-02T01:32:42;100002.94;;;9.82;90.51
45523;BME280;31254;51.680;5.394;2024-03-02T01:35:09;99939.31;;;9.41;91.00
45523;BME280;31254;51.680;5.394;2024-03-02T01:37:37;99915.28;;;9.28;90.85
45523;BME280;31254;51.680;5.394;2024-03-02T01:40:04;99984.19;;;9.71;91.39
45523;BME280;31254;51.680;5.394;2024-03-02T01:42:38;99940.19;;;9.41;90.89
45523;BME280;31254;51.680;5.394;2024-03-02T01:45:05;99913.94;;;9.32;90.58
45523;BME280;31254;51.680;5.394;2024-03-02T01:47:32;99978.09;;;9.77;90.77
45523;BME280;31254;51.680;5.394;2024-03-02T01:49:59;99994.09;;;9.80;90.33
45523;BME280;31254;51.680;5.394;2024-03-02T01:52:27;99917.16;;;9.27;90.73
45523;BME280;31254;51.680;5.394;2024-03-02T01:54:54;99987.91;;;9.70;90.67
45523;BME280;31254;51.680;5.394;2024-03-02T01:57:20;99876.72;;;8.98;91.04
45523;BME280;31254;51.680;5.394;2024-03-02T01:59:47;99942.41;;;9.46;91.08
45523;BME280;31254;51.680;5.394;2024-03-02T02:02:14;99913.56;;;9.19;91.16
45523;BME280;31254;51.680;5.394;2024-03-02T02:04:41;99899.25;;;9.17;90.75
45523;BME280;31254;51.680;5.394;2024-03-02T02:07:08;99931.00;;;9.42;90.55
45523;BME280;31254;51.680;5.394;2024-03-02T02:09:36;99985.72;;;9.65;91.31
45523;BME280;31254;51.680;5.394;2024-03-02T02:12:02;99933.16;;;9.30;91.33
45523;BME280;31254;51.680;5.394;2024-03-02T02:14:32;99990.28;;;9.65;90.90
45523;BME280;31254;51.680;5.394;2024-03-02T02:16:59;99724.00;;;8.08;91.30
45523;BME280;31254;51.680;5.394;2024-03-02T02:19:26;99825.41;;;8.60;91.57
45523;BME280;31254;51.680;5.394;2024-03-02T02:21:52;99920.38;;;9.23;91.52
45523;BME280;31254;51.680;5.394;2024-03-02T02:24:19;99923.19;;;9.05;91.72
45523;BME280;31254;51.680;5.394;2024-03-02T02:26:46;99876.47;;;8.75;91.63
45523;BME280;31254;51.680;5.394;2024-03-02T02:29:12;99715.81;;;7.99;91.80
45523;BME280;31254;51.680;5.394;2024-03-02T02:31:39;99917.25;;;9.09;91.95
45523;BME280;31254;51.680;5.394;2024-03-02T02:34:06;99965.03;;;9.46;92.03
45523;BME280;31254;51.680;5.394;2024-03-02T02:36:34;99887.94;;;8.95;91.81
45523;BME280;31254;51.680;5.394;2024-03-02T02:39:04;99940.31;;;9.31;91.36
45523;BME280;31254;51.680;5.394;2024-03-02T02:41:31;99781.19;;;8.32;91.35
45523;BME280;31254;51.680;5.394;2024-03-02T02:43:58;99894.09;;;9.05;91.55
45523;BME280;31254;51.680;5.394;2024-03-02T02:46:24;99814.22;;;8.37;91.55
45523;BME280;31254;51.680;5.394;2024-03-02T02:48:51;99781.75;;;8.36;91.48
45523;BME280;31254;51.680;5.394;2024-03-02T02:51:19;99871.66;;;8.69;91.68
45523;BME280;31254;51.680;5.394;2024-03-02T02:53:47;99993.50;;;9.60;91.72
45523;BME280;31254;51.680;5.394;2024-03-02T02:56:14;99781.72;;;8.54;91.70
45523;BME280;31254;51.680;5.394;2024-03-02T02:58:40;99794.31;;;8.37;91.76
45523;BME280;31254;51.680;5.394;2024-03-02T03:01:08;99909.06;;;9.01;92.35
45523;BME280;31254;51.680;5.394;2024-03-02T03:03:35;99977.47;;;9.49;91.58
45523;BME280;31254;51.680;5.394;2024-03-02T03:06:01;99988.38;;;9.57;91.92
45523;BME280;31254;51.680;5.394;2024-03-02T03:08:28;99844.31;;;8.70;91.68
45523;BME280;31254;51.680;5.394;2024-03-02T03:10:55;99879.91;;;8.85;91.44
45523;BME280;31254;51.680;5.394;2024-03-02T03:13:22;99993.81;;;9.57;91.38
45523;BME280;31254;51.680;5.394;2024-03-02T03:15:51;99804.03;;;8.39;91.63
45523;BME280;31254;51.680;5.394;2024-03-02T03:18:17;99792.47;;;8.37;91.50
45523;BME280;31254;51.680;5.394;2024-03-02T03:20:44;99872.06;;;8.82;91.37
45523;BME280;31254;51.680;5.394;2024-03-02T03:23:11;99799.13;;;8.43;91.71
45523;BME280;31254;51.680;5.394;2024-03-02T03:25:44;99889.78;;;8.86;91.53
45523;BME280;31254;51.680;5.394;2024-03-02T03:28:11;99813.50;;;8.35;91.76
45523;BME280;31254;51.680;5.394;2024-03-02T03:30:38;99474.34;;;6.24;91.26
45523;BME280;31254;51.680;5.394;2024-03-02T03:33:05;99911.66;;;8.76;91.63
45523;BME280;31254;51.680;5.394;2024-03-02T03:35:32;100004.66;;;9.41;91.69
45523;BME280;31254;51.680;5.394;2024-03-02T03:37:59;100007.53;;;9.39;91.37
45523;BME280;31254;51.680;5.394;2024-03-02T03:40:25;99926.53;;;8.99;91.31
45523;BME280;31254;51.680;5.394;2024-03-02T03:42:52;99977.34;;;9.24;91.51
45523;BME280;31254;51.680;5.394;2024-03-02T03:45:19;99922.94;;;8.90;91.48
45523;BME280;31254;51.680;5.394;2024-03-02T03:47:46;100014.91;;;9.47;91.31
45523;BME280;31254;51.680;5.394;2024-03-02T03:50:13;99956.06;;;9.20;90.50
45523;BME280;31254;51.680;5.394;2024-03-02T03:52:42;99896.34;;;8.75;90.53
45523;BME280;31254;51.680;5.394;2024-03-02T03:55:10;100005.06;;;9.54;90.40
45523;BME280;31254;51.680;5.394;2024-03-02T03:57:36;99954.38;;;9.19;90.62
45523;BME280;31254;51.680;5.394;2024-03-02T04:00:03;99950.25;;;9.14;90.01
45523;BME280;31254;51.680;5.394;2024-03-02T04:02:30;100009.31;;;9.57;89.93
45523;BME280;31254;51.680;5.394;2024-03-02T04:04:57;99980.28;;;9.31;89.99
45523;BME280;31254;51.680;5.394;2024-03-02T04:07:23;99945.91;;;9.22;89.71
45523;BME280;31254;51.680;5.394;2024-03-02T04:09:50;99896.50;;;8.74;89.89
45523;BME280;31254;51.680;5.394;2024-03-02T04:12:16;99963.19;;;9.12;89.95
45523;BME280;31254;51.680;5.394;2024-03-02T04:14:43;99960.31;;;9.14;89.75
45523;BME280;31254;51.680;5.394;2024-03-02T04:17:09;99319.66;;;5.01;89.37
45523;BME280;31254;51.680;5.394;2024-03-02T04:19:36;100020.97;;;9.41;90.02
45523;BME280;31254;51.680;5.394;2024-03-02T04:22:03;99686.44;;;7.42;90.33
45523;BME280;31254;51.680;5.394;2024-03-02T04:24:43;99782.00;;;7.98;90.18
45523;BME280;31254;51.680;5.394;2024-03-02T04:27:10;99867.81;;;8.53;90.23
45523;BME280;31254;51.680;5.394;2024-03-02T04:29:36;99887.28;;;8.67;89.86
45523;BME280;31254;51.680;5.394;2024-03-02T04:32:03;100008.94;;;9.43;90.17
45523;BME280;31254;51.680;5.394;2024-03-02T04:34:30;99960.31;;;9.14;89.87
45523;BME280;31254;51.680;5.394;2024-03-02T04:36:56;99685.75;;;7.40;90.04
45523;BME280;31254;51.680;5.394;2024-03-02T04:39:23;100022.03;;;9.40;90.39
45523;BME280;31254;51.680;5.394;2024-03-02T04:41:51;99794.47;;;8.09;89.94
45523;BME280;31254;51.680;5.394;2024-03-02T04:44:17;100022.66;;;9.33;90.17
45523;BME280;31254;51.680;5.394;2024-03-02T04:46:44;99833.53;;;8.34;89.78
45523;BME280;31254;51.680;5.394;2024-03-02T04:49:10;99899.28;;;8.56;89.97
45523;BME280;31254;51.680;5.394;2024-03-02T04:51:37;100086.88;;;9.44;90.24
45523;BME280;31254;51.680;5.394;2024-03-02T04:54:18;99674.88;;;7.22;89.17
45523;BME280;31254;51.680;5.394;2024-03-02T04:56:45;99947.22;;;8.83;89.41
45523;BME280;31254;51.680;5.394;2024-03-02T04:59:17;100037.88;;;9.44;89.81
45523;BME280;31254;51.680;5.394;2024-03-02T05:01:44;100037.88;;;9.44;89.40
45523;BME280;31254;51.680;5.394;2024-03-02T05:04:12;100074.59;;;9.40;89.79
45523;BME280;31254;51.680;5.394;2024-03-02T05:06:39;99980.31;;;9.05;89.35
45523;BME280;31254;51.680;5.394;2024-03-02T05:09:09;99961.22;;;8.96;89.25
45523;BME280;31254;51.680;5.394;2024-03-02T05:11:35;100021.44;;;9.28;89.57
45523;BME280;31254;51.680;5.394;2024-03-02T05:14:05;99950.09;;;8.82;89.51
45523;BME280;31254;51.680;5.394;2024-03-02T05:16:34;99999.56;;;9.11;89.69
45523;BME280;31254;51.680;5.394;2024-03-02T05:19:01;99911.38;;;8.62;89.33
45523;BME280;31254;51.680;5.394;2024-03-02T05:21:27;99804.50;;;7.82;89.29
45523;BME280;31254;51.680;5.394;2024-03-02T05:23:54;100043.97;;;9.38;89.89
45523;BME280;31254;51.680;5.394;2024-03-02T05:26:20;99975.94;;;8.86;89.54
45523;BME280;31254;51.680;5.394;2024-03-02T05:28:47;100048.00;;;9.34;89.77
45523;BME280;31254;51.680;5.394;2024-03-02T05:31:17;100033.97;;;9.21;89.86
45523;BME280;31254;51.680;5.394;2024-03-02T05:33:44;100083.22;;;9.36;89.35
45523;BME280;31254;51.680;5.394;2024-03-02T05:36:11;99602.56;;;6.33;89.75
45523;BME280;31254;51.680;5.394;2024-03-02T05:38:37;100066.22;;;9.33;90.00
45523;BME280;31254;51.680;5.394;2024-03-02T05:41:04;99804.88;;;7.69;89.72
45523;BME280;31254;51.680;5.394;2024-03-02T05:43:31;100055.50;;;9.06;90.14
45523;BME280;31254;51.680;5.394;2024-03-02T05:45:57;100014.44;;;8.73;90.60
45523;BME280;31254;51.680;5.394;2024-03-02T05:48:25;100014.28;;;8.74;90.45
45523;BME280;31254;51.680;5.394;2024-03-02T05:50:56;100014.34;;;8.83;90.45
45523;BME280;31254;51.680;5.394;2024-03-02T05:53:22;99950.09;;;8.37;90.33
45523;BME280;31254;51.680;5.394;2024-03-02T05:55:49;99880.72;;;8.07;90.21
45523;BME280;31254;51.680;5.394;2024-03-02T05:58:22;100006.19;;;8.83;89.76
45523;BME280;31254;51.680;5.394;2024-03-02T06:01:09;100056.88;;;9.10;89.84
45523;BME280;31254;51.680;5.394;2024-03-02T06:03:36;99945.44;;;8.48;89.60
45523;BME280;31254;51.680;5.394;2024-03-02T06:06:03;99589.69;;;6.35;89.68
45523;BME280;31254;51.680;5.394;2024-03-02T06:08:29;100049.22;;;9.13;89.60
45523;BME280;31254;51.680;5.394;2024-03-02T06:10:56;100084.75;;;9.30;89.71
45523;BME280;31254;51.680;5.394;2024-03-02T06:13:23;99887.84;;;8.08;89.31
45523;BME280;31254;51.680;5.394;2024-03-02T06:15:52;100096.47;;;9.30;89.20
45523;BME280;31254;51.680;5.394;2024-03-02T06:18:21;100009.81;;;8.65;89.52
45523;BME280;31254;51.680;5.394;2024-03-02T06:20:48;99928.75;;;8.24;89.41
45523;BME280;31254;51.680;5.394;2024-03-02T06:23:15;99874.38;;;7.80;89.38
45523;BME280;31254;51.680;5.394;2024-03-02T06:25:42;100034.31;;;8.91;89.27
45523;BME280;31254;51.680;5.394;2024-03-02T06:28:08;100054.41;;;8.99;89.88
45523;BME280;31254;51.680;5.394;2024-03-02T06:30:35;100104.28;;;9.25;89.50
45523;BME280;31254;51.680;5.394;2024-03-02T06:33:02;100091.19;;;9.29;89.44
45523;BME280;31254;51.680;5.394;2024-03-02T06:35:30;100109.25;;;9.30;89.25
45523;BME280;31254;51.680;5.394;2024-03-02T06:37:56;100142.22;;;9.27;89.26
45523;BME280;31254;51.680;5.394;2024-03-02T06:40:23;100095.94;;;9.27;89.29
45523;BME280;31254;51.680;5.394;2024-03-02T06:42:50;100098.81;;;9.25;89.13
45523;BME280;31254;51.680;5.394;2024-03-02T06:45:17;100138.78;;;9.25;89.39
45523;BME280;31254;51.680;5.394;2024-03-02T06:47:43;99969.97;;;8.38;89.32
45523;BME280;31254;51.680;5.394;2024-03-02T06:50:10;100114.63;;;9.22;89.20
45523;BME280;31254;51.680;5.394;2024-03-02T06:52:37;100107.41;;;9.12;89.27
45523;BME280;31254;51.680;5.394;2024-03-02T06:55:04;99949.78;;;8.22;89.10
45523;BME280;31254;51.680;5.394;2024-03-02T06:57:31;100124.47;;;9.23;89.08
45523;BME280;31254;51.680;5.394;2024-03-02T06:59:57;99915.81;;;8.00;89.52
45523;BME280;31254;51.680;5.394;2024-03-02T07:02:25;99923.31;;;8.06;89.39
45523;BME280;31254;51.680;5.394;2024-03-02T07:04:53;99716.75;;;6.56;89.20
45523;BME280;31254;51.680;5.394;2024-03-02T07:07:20;100129.25;;;9.21;89.83
45523;BME280;31254;51.680;5.394;2024-03-02T07:09:47;100127.34;;;9.21;89.52
45523;BME280;31254;51.680;5.394;2024-03-02T07:12:14;100015.66;;;8.52;89.76
45523;BME280;31254;51.680;5.394;2024-03-02T07:14:41;100062.47;;;8.64;89.48
45523;BME280;31254;51.680;5.394;2024-03-02T07:17:26;100096.66;;;8.85;89.71
45523;BME280;31254;51.680;5.394;2024-03-02T07:19:52;100108.28;;;8.95;89.92
45523;BME280;31254;51.680;5.394;2024-03-02T07:22:19;99990.00;;;8.19;89.55
45523;BME280;31254;51.680;5.394;2024-03-02T07:24:46;99971.66;;;8.21;89.21
45523;BME280;31254;51.680;5.394;2024-03-02T07:27:13;100107.22;;;8.88;89.38
45523;BME280;31254;51.680;5.394;2024-03-02T07:29:41;100164.72;;;9.11;89.49
45523;BME280;31254;51.680;5.394;2024-03-02T07:32:09;100154.59;;;9.03;89.89
45523;BME280;31254;51.680;5.394;2024-03-02T07:34:36;100104.31;;;8.71;89.98
45523;BME280;31254;51.680;5.394;2024-03-02T07:37:03;100089.66;;;8.64;89.89
45523;BME280;31254;51.680;5.394;2024-03-02T07:39:30;100052.75;;;8.44;89.36
45523;BME280;31254;51.680;5.394;2024-03-02T07:41:57;100152.56;;;9.05;89.59
45523;BME280;31254;51.680;5.394;2024-03-02T07:44:24;100164.47;;;9.04;89.59
45523;BME280;31254;51.680;5.394;2024-03-02T07:46:50;100003.75;;;8.17;89.75
45523;BME280;31254;51.680;5.394;2024-03-02T07:49:18;99791.34;;;6.88;89.32
45523;BME280;31254;51.680;5.394;2024-03-02T07:51:45;99937.09;;;7.59;90.07
45523;BME280;31254;51.680;5.394;2024-03-02T07:54:11;99739.78;;;6.14;91.06
45523;BME280;31254;51.680;5.394;2024-03-02T07:56:38;100060.84;;;8.08;90.94
45523;BME280;31254;51.680;5.394;2024-03-02T07:59:05;99974.47;;;7.47;91.54
45523;BME280;31254;51.680;5.394;2024-03-02T08:01:32;100017.94;;;7.65;92.23
45523;BME280;31254;51.680;5.394;2024-03-02T08:04:02;100110.19;;;8.58;90.68
45523;BME280;31254;51.680;5.394;2024-03-02T08:06:32;99925.78;;;7.46;89.97
45523;BME280;31254;51.680;5.394;2024-03-02T08:09:00;99811.13;;;6.70;89.97
45523;BME280;31254;51.680;5.394;2024-03-02T08:11:27;99928.19;;;7.49;90.18
45523;BME280;31254;51.680;5.394;2024-03-02T08:13:54;100130.75;;;8.61;90.51
45523;BME280;31254;51.680;5.394;2024-03-02T08:16:22;100111.72;;;8.61;90.39
45523;BME280;31254;51.680;5.394;2024-03-02T08:18:50;99953.56;;;7.76;90.10
45523;BME280;31254;51.680;5.394;2024-03-02T08:21:17;100158.59;;;8.91;89.86
45523;BME280;31254;51.680;5.394;2024-03-02T08:23:44;100044.19;;;8.20;89.77
45523;BME280;31254;51.680;5.394;2024-03-02T08:26:11;100073.94;;;8.40;89.62
45523;BME280;31254;51.680;5.394;2024-03-02T08:28:38;100161.19;;;8.83;90.33
45523;BME280;31254;51.680;5.394;2024-03-02T08:31:07;100005.81;;;7.87;89.67
45523;BME280;31254;51.680;5.394;2024-03-02T08:33:34;100184.84;;;8.82;89.23
45523;BME280;31254;51.680;5.394;2024-03-02T08:36:04;100081.69;;;8.17;88.85
45523;BME280;31254;51.680;5.394;2024-03-02T08:38:31;100013.50;;;7.92;88.29
45523;BME280;31254;51.680;5.394;2024-03-02T08:40:58;100014.81;;;7.88;88.52
45523;BME280;31254;51.680;5.394;2024-03-02T08:43:24;100091.25;;;8.39;87.94
45523;BME280;31254;51.680;5.394;2024-03-02T08:45:51;99995.03;;;7.78;88.79
45523;BME280;31254;51.680;5.394;2024-03-02T08:48:18;99938.03;;;7.50;88.78
45523;BME280;31254;51.680;5.394;2024-03-02T08:50:44;100115.78;;;8.57;88.85
45523;BME280;31254;51.680;5.394;2024-03-02T08:53:11;99587.19;;;5.30;88.58
45523;BME280;31254;51.680;5.394;2024-03-02T08:55:38;100079.50;;;8.20;88.76
45523;BME280;31254;51.680;5.394;2024-03-02T08:58:05;100150.25;;;8.74;89.20
45523;BME280;31254;51.680;5.394;2024-03-02T09:00:32;100119.03;;;8.60;88.39
45523;BME280;31254;51.680;5.394;2024-03-02T09:02:59;99997.91;;;7.94;88.18
45523;BME280;31254;51.680;5.394;2024-03-02T09:05:25;100144.41;;;8.87;88.58
45523;BME280;31254;51.680;5.394;2024-03-02T09:07:52;99950.22;;;7.64;88.02
45523;BME280;31254;51.680;5.394;2024-03-02T09:10:18;99943.56;;;7.58;88.57
45523;BME280;31254;51.680;5.394;2024-03-02T09:12:45;100016.31;;;8.00;89.22
45523;BME280;31254;51.680;5.394;2024-03-02T09:15:12;100060.66;;;8.37;88.84
45523;BME280;31254;51.680;5.394;2024-03-02T09:17:38;100128.59;;;9.01;88.46
45523;BME280;31254;51.680;5.394;2024-03-02T09:20:05;100053.53;;;8.72;87.37
45523;BME280;31254;51.680;5.394;2024-03-02T09:22:32;100068.34;;;8.77;86.73
45523;BME280;31254;51.680;5.394;2024-03-02T09:24:58;99972.91;;;8.27;86.99
45523;BME280;31254;51.680;5.394;2024-03-02T09:27:25;99802.66;;;7.29;86.79
45523;BME280;31254;51.680;5.394;2024-03-02T09:29:52;99584.25;;;5.89;86.93
45523;BME280;31254;51.680;5.394;2024-03-02T09:32:19;99942.88;;;8.28;87.14
45523;BME280;31254;51.680;5.394;2024-03-02T09:34:45;100100.03;;;9.05;88.38
45523;BME280;31254;51.680;5.394;2024-03-02T09:37:14;100050.66;;;8.37;88.45
45523;BME280;31254;51.680;5.394;2024-03-02T09:39:43;100166.66;;;9.71;87.70
45523;BME280;31254;51.680;5.394;2024-03-02T09:42:12;100172.84;;;9.81;81.31
45523;BME280;31254;51.680;5.394;2024-03-02T09:44:39;100181.06;;;9.89;79.45
45523;BME280;31254;51.680;5.394;2024-03-02T09:47:06;100025.19;;;9.01;76.14
45523;BME280;31254;51.680;5.394;2024-03-02T09:49:34;99998.16;;;8.99;74.41
45523;BME280;31254;51.680;5.394;2024-03-02T09:52:04;100056.41;;;9.49;75.76
45523;BME280;31254;51.680;5.394;2024-03-02T09:54:32;100170.38;;;10.31;74.61
45523;BME280;31254;51.680;5.394;2024-03-02T09:56:58;100170.09;;;10.34;74.17
45523;BME280;31254;51.680;5.394;2024-03-02T09:59:25;99911.38;;;8.88;72.90
45523;BME280;31254;51.680;5.394;2024-03-02T10:01:58;100033.38;;;9.69;71.06
45523;BME280;31254;51.680;5.394;2024-03-02T10:04:26;100164.69;;;10.50;70.20
45523;BME280;31254;51.680;5.394;2024-03-02T10:07:15;100166.78;;;10.81;71.17
45523;BME280;31254;51.680;5.394;2024-03-02T10:09:44;100026.00;;;9.96;70.08
45523;BME280;31254;51.680;5.394;2024-03-02T10:12:13;100159.63;;;10.96;70.18
45523;BME280;31254;51.680;5.394;2024-03-02T10:14:39;100045.97;;;10.21;69.80
45523;BME280;31254;51.680;5.394;2024-03-02T10:17:08;100103.69;;;10.84;70.65
45523;BME280;31254;51.680;5.394;2024-03-02T10:19:35;100150.59;;;11.21;70.70
45523;BME280;31254;51.680;5.394;2024-03-02T10:22:05;100103.88;;;10.91;68.39
45523;BME280;31254;51.680;5.394;2024-03-02T10:27:08;100145.81;;;11.47;66.66
45523;BME280;31254;51.680;5.394;2024-03-02T10:29:39;100068.19;;;11.17;68.23
45523;BME280;31254;51.680;5.394;2024-03-02T10:32:10;100113.03;;;11.56;67.30
45523;BME280;31254;51.680;5.394;2024-03-02T10:34:41;100137.25;;;11.67;65.75
45523;BME280;31254;51.680;5.394;2024-03-02T10:37:10;100134.47;;;11.83;66.09
45523;BME280;31254;51.680;5.394;2024-03-02T10:39:37;100133.94;;;11.88;65.83
45523;BME280;31254;51.680;5.394;2024-03-02T10:42:08;100126.22;;;12.00;64.98
45523;BME280;31254;51.680;5.394;2024-03-02T10:44:34;100048.94;;;11.75;64.03
45523;BME280;31254;51.680;5.394;2024-03-02T10:47:03;100116.34;;;12.30;61.73
45523;BME280;31254;51.680;5.394;2024-03-02T10:49:31;100122.97;;;12.44;61.54
45523;BME280;31254;51.680;5.394;2024-03-02T10:51:59;100117.31;;;12.46;60.69
45523;BME280;31254;51.680;5.394;2024-03-02T10:54:26;100085.22;;;12.39;61.21
45523;BME280;31254;51.680;5.394;2024-03-02T10:56:58;100143.41;;;12.79;60.44
45523;BME280;31254;51.680;5.394;2024-03-02T11:01:55;100120.06;;;12.92;58.85
45523;BME280;31254;51.680;5.394;2024-03-02T11:04:27;100129.75;;;13.03;58.25
45523;BME280;31254;51.680;5.394;2024-03-02T11:07:02;100117.13;;;13.16;59.46
45523;BME280;31254;51.680;5.394;2024-03-02T11:09:34;100032.50;;;12.69;58.87
45523;BME280;31254;51.680;5.394;2024-03-02T11:14:58;99895.59;;;12.01;54.75
45523;BME280;31254;51.680;5.394;2024-03-02T11:17:25;99953.41;;;12.59;54.66
45523;BME280;31254;51.680;5.394;2024-03-02T11:19:52;100116.88;;;13.64;55.38
45523;BME280;31254;51.680;5.394;2024-03-02T11:22:19;99934.63;;;12.56;54.18
45523;BME280;31254;51.680;5.394;2024-03-02T11:24:51;100131.59;;;13.78;56.29
45523;BME280;31254;51.680;5.394;2024-03-02T11:33:10;99913.97;;;12.68;53.43
45523;BME280;31254;51.680;5.394;2024-03-02T11:35:43;99940.66;;;13.04;53.12
45523;BME280;31254;51.680;5.394;2024-03-02T11:38:11;100101.06;;;14.11;53.94
45523;BME280;31254;51.680;5.394;2024-03-02T11:40:41;100050.94;;;14.02;53.57
45523;BME280;31254;51.680;5.394;2024-03-02T11:43:08;100022.88;;;14.00;53.08
45523;BME280;31254;51.680;5.394;2024-03-02T11:45:36;100025.34;;;13.95;54.35
45523;BME280;31254;51.680;5.394;2024-03-02T11:48:06;100011.78;;;14.08;52.57
45523;BME280;31254;51.680;5.394;2024-03-02T11:50:35;100085.56;;;14.55;52.48
45523;BME280;31254;51.680;5.394;2024-03-02T11:53:05;100090.66;;;14.58;52.39
45523;BME280;31254;51.680;5.394;2024-03-02T11:55:36;100025.56;;;14.15;52.22
45523;BME280;31254;51.680;5.394;2024-03-02T11:58:04;100091.78;;;14.85;52.90
45523;BME280;31254;51.680;5.394;2024-03-02T12:00:31;99969.69;;;14.38;52.11
45523;BME280;31254;51.680;5.394;2024-03-02T12:03:06;99686.13;;;12.59;52.10
45523;BME280;31254;51.680;5.394;2024-03-02T12:05:33;100015.97;;;14.84;50.97
45523;BME280;31254;51.680;5.394;2024-03-02T12:08:05;100032.69;;;14.89;51.87
45523;BME280;31254;51.680;5.394;2024-03-02T12:10:34;100076.84;;;15.16;51.68
45523;BME280;31254;51.680;5.394;2024-03-02T12:13:05;100063.88;;;15.03;50.08
45523;BME280;31254;51.680;5.394;2024-03-02T12:15:38;99908.50;;;14.16;51.94
45523;BME280;31254;51.680;5.394;2024-03-02T12:18:06;99939.06;;;14.13;50.59
45523;BME280;31254;51.680;5.394;2024-03-02T12:20:33;100046.44;;;14.89;50.20
45523;BME280;31254;51.680;5.394;2024-03-02T12:23:02;99839.94;;;13.73;51.48
45523;BME280;31254;51.680;5.394;2024-03-02T12:25:31;100046.22;;;14.91;51.05
45523;BME280;31254;51.680;5.394;2024-03-02T12:28:00;99729.16;;;13.02;51.08
45523;BME280;31254;51.680;5.394;2024-03-02T12:30:30;99849.28;;;14.00;50.92
45523;BME280;31254;51.680;5.394;2024-03-02T12:32:56;99992.06;;;14.78;52.57
45523;BME280;31254;51.680;5.394;2024-03-02T12:35:24;100024.22;;;14.84;51.82
45523;BME280;31254;51.680;5.394;2024-03-02T12:37:53;99900.41;;;14.29;50.66
45523;BME280;31254;51.680;5.394;2024-03-02T12:40:20;100018.06;;;15.10;50.67
45523;BME280;31254;51.680;5.394;2024-03-02T12:42:49;99890.75;;;14.40;51.74
45523;BME280;31254;51.680;5.394;2024-03-02T12:45:16;99981.72;;;14.80;51.09
45523;BME280;31254;51.680;5.394;2024-03-02T12:47:51;99926.81;;;14.58;52.90
45523;BME280;31254;51.680;5.394;2024-03-02T12:50:18;99959.19;;;14.91;52.95
45523;BME280;31254;51.680;5.394;2024-03-02T12:52:54;99929.69;;;14.72;52.94
45523;BME280;31254;51.680;5.394;2024-03-02T12:55:22;100018.72;;;15.41;52.61
45523;BME280;31254;51.680;5.394;2024-03-02T12:57:52;100020.06;;;15.58;51.80
45523;BME280;31254;51.680;5.394;2024-03-02T13:00:20;99914.06;;;15.01;51.20
45523;BME280;31254;51.680;5.394;2024-03-02T13:02:47;99856.25;;;14.52;51.72
45523;BME280;31254;51.680;5.394;2024-03-02T13:05:14;99969.94;;;15.14;52.18
45523;BME280;31254;51.680;5.394;2024-03-02T13:07:41;99972.06;;;15.19;51.90
45523;BME280;31254;51.680;5.394;2024-03-02T13:10:08;99874.19;;;14.76;51.95
45523;BME280;31254;51.680;5.394;2024-03-02T13:12:36;99998.69;;;15.47;50.76
45523;BME280;31254;51.680;5.394;2024-03-02T13:15:04;99997.13;;;15.38;52.08
45523;BME280;31254;51.680;5.394;2024-03-02T13:17:34;100012.28;;;15.27;52.55
45523;BME280;31254;51.680;5.394;2024-03-02T13:20:04;99933.59;;;14.84;53.23
45523;BME280;31254;51.680;5.394;2024-03-02T13:22:35;99877.38;;;14.52;52.52
45523;BME280;31254;51.680;5.394;2024-03-02T13:25:02;99830.72;;;14.23;51.55